sensor_id;sensor_type;location;lat;lon;timestamp;P1;durP1;ratioP1;P2;durP2;ratioP2
33830;SDS011;20137;48.834;8.732;2024-03-08T00:00:13;62.60;;;32.28;;
33830;SDS011;20137;48.834;8.732;2024-03-08T00:02:40;64.28;;;32.95;;
33830;SDS011;20137;48.834;8.732;2024-03-08T00:05:07;68.68;;;31.92;;
33830;SDS011;20137;48.834;8.732;2024-03-08T00:07:37;63.08;;;31.20;;
33830;SDS011;20137;48.834;8.732;2024-03-08T00:10:04;65.50;;;31.70;;
33830;SDS011;20137;48.834;8.732;2024-03-08T00:12:36;65.05;;;31.40;;
33830;SDS011;20137;48.834;8.732;2024-03-08T00:15:03;68.35;;;31.90;;
33830;SDS011;20137;48.834;8.732;2024-03-08T00:17:29;68.43;;;32.50;;
33830;SDS011;20137;48.834;8.732;2024-03-08T00:19:54;72.57;;;34.10;;
33830;SDS011;20137;48.834;8.732;2024-03-08T00:22:20;66.20;;;33.78;;
33830;SDS011;20137;48.834;8.732;2024-03-08T00:24:47;68.07;;;33.25;;
33830;SDS011;20137;48.834;8.732;2024-03-08T00:27:15;68.68;;;33.00;;
33830;SDS011;20137;48.834;8.732;2024-03-08T00:29:41;67.75;;;32.35;;
33830;SDS011;20137;48.834;8.732;2024-03-08T00:32:06;68.10;;;32.35;;
33830;SDS011;20137;48.834;8.732;2024-03-08T00:34:36;66.25;;;31.70;;
33830;SDS011;20137;48.834;8.732;2024-03-08T00:37:02;64.28;;;31.23;;
33830;SDS011;20137;48.834;8.732;2024-03-08T00:39:28;66.63;;;31.90;;
33830;SDS011;20137;48.834;8.732;2024-03-08T00:41:54;65.85;;;31.35;;
33830;SDS011;20137;48.834;8.732;2024-03-08T00:44:20;66.43;;;33.40;;
33830;SDS011;20137;48.834;8.732;2024-03-08T00:46:46;67.65;;;32.83;;
33830;SDS011;20137;48.834;8.732;2024-03-08T00:49:11;63.78;;;31.15;;
33830;SDS011;20137;48.834;8.732;2024-03-08T00:51:37;68.72;;;32.90;;
33830;SDS011;20137;48.834;8.732;2024-03-08T00:54:03;70.18;;;32.92;;
33830;SDS011;20137;48.834;8.732;2024-03-08T00:56:29;68.68;;;32.90;;
33830;SDS011;20137;48.834;8.732;2024-03-08T00:58:54;62.90;;;31.38;;
33830;SDS011;20137;48.834;8.732;2024-03-08T01:01:20;66.50;;;31.10;;
33830;SDS011;20137;48.834;8.732;2024-03-08T01:03:46;66.55;;;33.08;;
33830;SDS011;20137;48.834;8.732;2024-03-08T01:06:12;68.88;;;32.85;;
33830;SDS011;20137;48.834;8.732;2024-03-08T01:08:37;63.05;;;30.92;;
33830;SDS011;20137;48.834;8.732;2024-03-08T01:11:06;69.40;;;31.65;;
33830;SDS011;20137;48.834;8.732;2024-03-08T01:13:31;66.03;;;30.98;;
33830;SDS011;20137;48.834;8.732;2024-03-08T01:15:57;64.60;;;31.02;;
33830;SDS011;20137;48.834;8.732;2024-03-08T01:18:23;62.92;;;30.48;;
33830;SDS011;20137;48.834;8.732;2024-03-08T01:20:48;62.40;;;29.98;;
33830;SDS011;20137;48.834;8.732;2024-03-08T01:23:14;62.85;;;29.80;;
33830;SDS011;20137;48.834;8.732;2024-03-08T01:25:40;65.43;;;31.45;;
33830;SDS011;20137;48.834;8.732;2024-03-08T01:28:06;64.85;;;29.20;;
33830;SDS011;20137;48.834;8.732;2024-03-08T01:30:32;64.88;;;32.50;;
33830;SDS011;20137;48.834;8.732;2024-03-08T01:32:59;64.35;;;30.70;;
33830;SDS011;20137;48.834;8.732;2024-03-08T01:35:25;63.35;;;30.15;;
33830;SDS011;20137;48.834;8.732;2024-03-08T01:37:52;65.93;;;31.27;;
33830;SDS011;20137;48.834;8.732;2024-03-08T01:40:18;64.90;;;30.15;;
33830;SDS011;20137;48.834;8.732;2024-03-08T01:42:43;59.50;;;29.45;;
33830;SDS011;20137;48.834;8.732;2024-03-08T01:45:09;65.70;;;29.02;;
33830;SDS011;20137;48.834;8.732;2024-03-08T01:47:35;64.78;;;30.73;;
33830;SDS011;20137;48.834;8.732;2024-03-08T01:50:02;61.75;;;30.80;;
33830;SDS011;20137;48.834;8.732;2024-03-08T01:52:31;74.32;;;33.38;;
33830;SDS011;20137;48.834;8.732;2024-03-08T01:54:59;67.88;;;30.02;;
33830;SDS011;20137;48.834;8.732;2024-03-08T01:57:26;65.65;;;30.55;;
33830;SDS011;20137;48.834;8.732;2024-03-08T01:59:56;68.45;;;32.47;;
33830;SDS011;20137;48.834;8.732;2024-03-08T02:02:22;67.35;;;30.38;;
33830;SDS011;20137;48.834;8.732;2024-03-08T02:04:48;63.05;;;30.50;;
33830;SDS011;20137;48.834;8.732;2024-03-08T02:07:17;72.88;;;33.25;;
33830;SDS011;20137;48.834;8.732;2024-03-08T02:09:43;65.53;;;30.65;;
33830;SDS011;20137;48.834;8.732;2024-03-08T02:12:09;70.90;;;31.05;;
33830;SDS011;20137;48.834;8.732;2024-03-08T02:14:35;65.95;;;30.75;;
33830;SDS011;20137;48.834;8.732;2024-03-08T02:17:01;76.50;;;32.42;;
33830;SDS011;20137;48.834;8.732;2024-03-08T02:19:27;69.60;;;32.47;;
33830;SDS011;20137;48.834;8.732;2024-03-08T02:21:53;69.95;;;32.40;;
33830;SDS011;20137;48.834;8.732;2024-03-08T02:24:19;69.75;;;31.77;;
33830;SDS011;20137;48.834;8.732;2024-03-08T02:26:44;80.80;;;34.03;;
33830;SDS011;20137;48.834;8.732;2024-03-08T02:29:11;78.43;;;34.80;;
33830;SDS011;20137;48.834;8.732;2024-03-08T02:31:37;68.07;;;32.65;;
33830;SDS011;20137;48.834;8.732;2024-03-08T02:34:04;80.43;;;36.67;;
33830;SDS011;20137;48.834;8.732;2024-03-08T02:36:30;70.28;;;33.45;;
33830;SDS011;20137;48.834;8.732;2024-03-08T02:38:59;75.38;;;32.85;;
33830;SDS011;20137;48.834;8.732;2024-03-08T02:41:27;65.07;;;31.63;;
33830;SDS011;20137;48.834;8.732;2024-03-08T02:43:52;66.93;;;30.48;;
33830;SDS011;20137;48.834;8.732;2024-03-08T02:46:18;72.85;;;32.25;;
33830;SDS011;20137;48.834;8.732;2024-03-08T02:48:44;63.70;;;31.90;;
33830;SDS011;20137;48.834;8.732;2024-03-08T02:51:09;71.22;;;31.88;;
33830;SDS011;20137;48.834;8.732;2024-03-08T02:53:35;66.00;;;31.13;;
33830;SDS011;20137;48.834;8.732;2024-03-08T02:56:02;71.88;;;31.77;;
33830;SDS011;20137;48.834;8.732;2024-03-08T02:58:29;69.68;;;31.13;;
33830;SDS011;20137;48.834;8.732;2024-03-08T03:00:55;69.82;;;32.15;;
33830;SDS011;20137;48.834;8.732;2024-03-08T03:03:22;65.50;;;32.50;;
33830;SDS011;20137;48.834;8.732;2024-03-08T03:05:48;64.95;;;30.25;;
33830;SDS011;20137;48.834;8.732;2024-03-08T03:08:14;67.97;;;32.78;;
33830;SDS011;20137;48.834;8.732;2024-03-08T03:10:41;67.43;;;31.38;;
33830;SDS011;20137;48.834;8.732;2024-03-08T03:13:07;61.25;;;29.25;;
33830;SDS011;20137;48.834;8.732;2024-03-08T03:15:33;65.65;;;32.00;;
33830;SDS011;20137;48.834;8.732;2024-03-08T03:17:59;62.85;;;30.65;;
33830;SDS011;20137;48.834;8.732;2024-03-08T03:20:25;71.03;;;31.98;;
33830;SDS011;20137;48.834;8.732;2024-03-08T03:22:57;72.85;;;30.25;;
33830;SDS011;20137;48.834;8.732;2024-03-08T03:25:28;70.63;;;29.83;;
33830;SDS011;20137;48.834;8.732;2024-03-08T03:27:59;66.85;;;29.17;;
33830;SDS011;20137;48.834;8.732;2024-03-08T03:30:25;62.03;;;29.63;;
33830;SDS011;20137;48.834;8.732;2024-03-08T03:32:58;64.28;;;27.92;;
33830;SDS011;20137;48.834;8.732;2024-03-08T03:35:30;61.33;;;27.80;;
33830;SDS011;20137;48.834;8.732;2024-03-08T03:37:55;64.75;;;29.17;;
33830;SDS011;20137;48.834;8.732;2024-03-08T03:40:30;67.97;;;29.80;;
33830;SDS011;20137;48.834;8.732;2024-03-08T03:42:57;59.63;;;28.80;;
33830;SDS011;20137;48.834;8.732;2024-03-08T03:45:23;61.28;;;28.52;;
33830;SDS011;20137;48.834;8.732;2024-03-08T03:47:49;61.90;;;28.77;;
33830;SDS011;20137;48.834;8.732;2024-03-08T03:50:15;62.45;;;29.40;;
33830;SDS011;20137;48.834;8.732;2024-03-08T03:52:41;72.03;;;29.77;;
33830;SDS011;20137;48.834;8.732;2024-03-08T03:55:07;60.45;;;28.45;;
33830;SDS011;20137;48.834;8.732;2024-03-08T03:57:33;57.33;;;26.33;;
33830;SDS011;20137;48.834;8.732;2024-03-08T03:59:59;60.95;;;27.90;;
33830;SDS011;20137;48.834;8.732;2024-03-08T04:02:25;63.28;;;30.33;;
33830;SDS011;20137;48.834;8.732;2024-03-08T04:04:51;60.47;;;27.83;;
33830;SDS011;20137;48.834;8.732;2024-03-08T04:07:17;66.70;;;27.75;;
33830;SDS011;20137;48.834;8.732;2024-03-08T04:09:43;67.40;;;28.23;;
33830;SDS011;20137;48.834;8.732;2024-03-08T04:12:09;64.63;;;28.77;;
33830;SDS011;20137;48.834;8.732;2024-03-08T04:14:35;56.40;;;27.77;;
33830;SDS011;20137;48.834;8.732;2024-03-08T04:17:01;57.53;;;27.88;;
33830;SDS011;20137;48.834;8.732;2024-03-08T04:19:27;60.15;;;28.38;;
33830;SDS011;20137;48.834;8.732;2024-03-08T04:21:53;60.92;;;27.50;;
33830;SDS011;20137;48.834;8.732;2024-03-08T04:24:19;61.83;;;29.58;;
33830;SDS011;20137;48.834;8.732;2024-03-08T04:26:45;63.03;;;28.42;;
33830;SDS011;20137;48.834;8.732;2024-03-08T04:29:11;65.07;;;29.58;;
33830;SDS011;20137;48.834;8.732;2024-03-08T04:31:39;68.13;;;28.67;;
33830;SDS011;20137;48.834;8.732;2024-03-08T04:34:05;63.92;;;28.90;;
33830;SDS011;20137;48.834;8.732;2024-03-08T04:36:31;57.53;;;26.33;;
33830;SDS011;20137;48.834;8.732;2024-03-08T04:38:57;60.42;;;27.13;;
33830;SDS011;20137;48.834;8.732;2024-03-08T04:41:23;62.97;;;27.67;;
33830;SDS011;20137;48.834;8.732;2024-03-08T04:43:49;62.00;;;29.30;;
33830;SDS011;20137;48.834;8.732;2024-03-08T04:46:14;54.08;;;25.98;;
33830;SDS011;20137;48.834;8.732;2024-03-08T04:48:41;65.07;;;28.92;;
33830;SDS011;20137;48.834;8.732;2024-03-08T04:51:08;61.30;;;27.33;;
33830;SDS011;20137;48.834;8.732;2024-03-08T04:53:34;57.92;;;26.40;;
33830;SDS011;20137;48.834;8.732;2024-03-08T04:56:00;56.90;;;27.38;;
33830;SDS011;20137;48.834;8.732;2024-03-08T04:58:31;60.72;;;28.23;;
33830;SDS011;20137;48.834;8.732;2024-03-08T05:01:02;58.00;;;27.10;;
33830;SDS011;20137;48.834;8.732;2024-03-08T05:03:28;58.78;;;27.17;;
33830;SDS011;20137;48.834;8.732;2024-03-08T05:05:55;56.22;;;26.42;;
33830;SDS011;20137;48.834;8.732;2024-03-08T05:08:21;58.83;;;27.98;;
33830;SDS011;20137;48.834;8.732;2024-03-08T05:10:47;61.55;;;27.35;;
33830;SDS011;20137;48.834;8.732;2024-03-08T05:13:12;53.15;;;26.60;;
33830;SDS011;20137;48.834;8.732;2024-03-08T05:15:38;58.38;;;26.13;;
33830;SDS011;20137;48.834;8.732;2024-03-08T05:18:04;64.45;;;27.45;;
33830;SDS011;20137;48.834;8.732;2024-03-08T05:20:30;56.35;;;27.42;;
33830;SDS011;20137;48.834;8.732;2024-03-08T05:22:56;64.00;;;27.33;;
33830;SDS011;20137;48.834;8.732;2024-03-08T05:25:25;58.28;;;28.02;;
33830;SDS011;20137;48.834;8.732;2024-03-08T05:27:51;56.15;;;27.00;;
33830;SDS011;20137;48.834;8.732;2024-03-08T05:30:17;62.45;;;28.88;;
33830;SDS011;20137;48.834;8.732;2024-03-08T05:32:43;60.03;;;28.02;;
33830;SDS011;20137;48.834;8.732;2024-03-08T05:35:11;66.78;;;28.02;;
33830;SDS011;20137;48.834;8.732;2024-03-08T05:37:37;61.20;;;28.73;;
33830;SDS011;20137;48.834;8.732;2024-03-08T05:40:04;64.30;;;29.05;;
33830;SDS011;20137;48.834;8.732;2024-03-08T05:42:34;61.22;;;28.50;;
33830;SDS011;20137;48.834;8.732;2024-03-08T05:45:00;62.83;;;29.00;;
33830;SDS011;20137;48.834;8.732;2024-03-08T05:47:26;65.85;;;29.65;;
33830;SDS011;20137;48.834;8.732;2024-03-08T05:49:52;62.15;;;28.98;;
33830;SDS011;20137;48.834;8.732;2024-03-08T05:52:18;62.10;;;28.33;;
33830;SDS011;20137;48.834;8.732;2024-03-08T05:54:44;65.05;;;29.88;;
33830;SDS011;20137;48.834;8.732;2024-03-08T05:57:10;64.13;;;29.85;;
33830;SDS011;20137;48.834;8.732;2024-03-08T05:59:36;66.10;;;30.15;;
33830;SDS011;20137;48.834;8.732;2024-03-08T06:02:02;71.55;;;32.08;;
33830;SDS011;20137;48.834;8.732;2024-03-08T06:04:28;63.47;;;30.00;;
33830;SDS011;20137;48.834;8.732;2024-03-08T06:06:54;70.18;;;31.05;;
33830;SDS011;20137;48.834;8.732;2024-03-08T06:09:22;64.93;;;29.88;;
33830;SDS011;20137;48.834;8.732;2024-03-08T06:11:48;60.85;;;27.92;;
33830;SDS011;20137;48.834;8.732;2024-03-08T06:14:14;67.40;;;30.63;;
33830;SDS011;20137;48.834;8.732;2024-03-08T06:16:43;69.00;;;30.98;;
33830;SDS011;20137;48.834;8.732;2024-03-08T06:19:10;68.55;;;32.00;;
33830;SDS011;20137;48.834;8.732;2024-03-08T06:21:37;74.75;;;32.97;;
33830;SDS011;20137;48.834;8.732;2024-03-08T06:24:02;67.63;;;31.27;;
33830;SDS011;20137;48.834;8.732;2024-03-08T06:26:28;66.10;;;31.25;;
33830;SDS011;20137;48.834;8.732;2024-03-08T06:28:54;64.45;;;30.30;;
33830;SDS011;20137;48.834;8.732;2024-03-08T06:31:20;66.75;;;32.28;;
33830;SDS011;20137;48.834;8.732;2024-03-08T06:33:46;66.57;;;30.02;;
33830;SDS011;20137;48.834;8.732;2024-03-08T06:36:15;68.35;;;32.13;;
33830;SDS011;20137;48.834;8.732;2024-03-08T06:38:43;66.38;;;30.40;;
33830;SDS011;20137;48.834;8.732;2024-03-08T06:41:12;62.78;;;29.63;;
33830;SDS011;20137;48.834;8.732;2024-03-08T06:43:44;68.50;;;30.10;;
33830;SDS011;20137;48.834;8.732;2024-03-08T06:46:11;59.92;;;28.98;;
33830;SDS011;20137;48.834;8.732;2024-03-08T06:48:38;69.65;;;31.27;;
33830;SDS011;20137;48.834;8.732;2024-03-08T06:51:06;66.00;;;30.13;;
33830;SDS011;20137;48.834;8.732;2024-03-08T06:53:32;63.60;;;29.60;;
33830;SDS011;20137;48.834;8.732;2024-03-08T06:56:00;64.13;;;29.27;;
33830;SDS011;20137;48.834;8.732;2024-03-08T06:58:26;57.33;;;28.52;;
33830;SDS011;20137;48.834;8.732;2024-03-08T07:00:52;61.88;;;30.48;;
33830;SDS011;20137;48.834;8.732;2024-03-08T07:03:18;58.58;;;28.33;;
33830;SDS011;20137;48.834;8.732;2024-03-08T07:05:44;59.67;;;28.58;;
33830;SDS011;20137;48.834;8.732;2024-03-08T07:08:10;59.67;;;28.65;;
33830;SDS011;20137;48.834;8.732;2024-03-08T07:10:39;61.47;;;28.58;;
33830;SDS011;20137;48.834;8.732;2024-03-08T07:13:06;62.72;;;29.10;;
33830;SDS011;20137;48.834;8.732;2024-03-08T07:15:33;56.20;;;27.35;;
33830;SDS011;20137;48.834;8.732;2024-03-08T07:17:58;58.15;;;27.65;;
33830;SDS011;20137;48.834;8.732;2024-03-08T07:20:25;58.50;;;28.25;;
33830;SDS011;20137;48.834;8.732;2024-03-08T07:22:50;55.55;;;27.38;;
33830;SDS011;20137;48.834;8.732;2024-03-08T07:25:16;56.55;;;25.67;;
33830;SDS011;20137;48.834;8.732;2024-03-08T07:27:54;58.47;;;27.60;;
33830;SDS011;20137;48.834;8.732;2024-03-08T07:30:21;56.97;;;28.38;;
33830;SDS011;20137;48.834;8.732;2024-03-08T07:35:34;57.83;;;26.02;;
33830;SDS011;20137;48.834;8.732;2024-03-08T07:38:02;56.90;;;27.35;;
33830;SDS011;20137;48.834;8.732;2024-03-08T07:40:40;55.60;;;26.20;;
33830;SDS011;20137;48.834;8.732;2024-03-08T07:43:09;56.65;;;26.20;;
33830;SDS011;20137;48.834;8.732;2024-03-08T07:45:36;55.03;;;25.55;;
33830;SDS011;20137;48.834;8.732;2024-03-08T07:48:02;54.88;;;25.83;;
33830;SDS011;20137;48.834;8.732;2024-03-08T07:50:29;53.25;;;25.85;;
33830;SDS011;20137;48.834;8.732;2024-03-08T07:52:54;60.25;;;27.20;;
33830;SDS011;20137;48.834;8.732;2024-03-08T07:55:20;52.45;;;26.23;;
33830;SDS011;20137;48.834;8.732;2024-03-08T07:57:49;52.53;;;25.42;;
33830;SDS011;20137;48.834;8.732;2024-03-08T08:00:14;52.03;;;25.30;;
33830;SDS011;20137;48.834;8.732;2024-03-08T08:02:43;47.90;;;24.63;;
33830;SDS011;20137;48.834;8.732;2024-03-08T08:05:11;53.33;;;26.35;;
33830;SDS011;20137;48.834;8.732;2024-03-08T08:07:38;60.40;;;29.23;;
33830;SDS011;20137;48.834;8.732;2024-03-08T08:10:06;53.70;;;27.92;;
33830;SDS011;20137;48.834;8.732;2024-03-08T08:12:32;52.47;;;25.42;;
33830;SDS011;20137;48.834;8.732;2024-03-08T08:14:59;53.70;;;25.65;;
33830;SDS011;20137;48.834;8.732;2024-03-08T08:17:25;48.85;;;25.00;;
33830;SDS011;20137;48.834;8.732;2024-03-08T08:19:51;49.00;;;24.27;;
33830;SDS011;20137;48.834;8.732;2024-03-08T08:22:16;50.97;;;25.80;;
33830;SDS011;20137;48.834;8.732;2024-03-08T08:24:43;49.47;;;24.38;;
33830;SDS011;20137;48.834;8.732;2024-03-08T08:27:09;47.88;;;23.52;;
33830;SDS011;20137;48.834;8.732;2024-03-08T08:29:36;49.03;;;23.75;;
33830;SDS011;20137;48.834;8.732;2024-03-08T08:32:02;49.83;;;25.08;;
33830;SDS011;20137;48.834;8.732;2024-03-08T08:34:28;51.42;;;25.40;;
33830;SDS011;20137;48.834;8.732;2024-03-08T08:36:55;47.65;;;24.42;;
33830;SDS011;20137;48.834;8.732;2024-03-08T08:39:20;48.95;;;24.35;;
33830;SDS011;20137;48.834;8.732;2024-03-08T08:41:47;48.30;;;24.30;;
33830;SDS011;20137;48.834;8.732;2024-03-08T08:44:13;49.13;;;24.65;;
33830;SDS011;20137;48.834;8.732;2024-03-08T08:46:40;48.60;;;24.40;;
33830;SDS011;20137;48.834;8.732;2024-03-08T08:49:05;49.03;;;24.80;;
33830;SDS011;20137;48.834;8.732;2024-03-08T08:51:35;51.80;;;24.88;;
33830;SDS011;20137;48.834;8.732;2024-03-08T08:54:01;47.65;;;23.95;;
33830;SDS011;20137;48.834;8.732;2024-03-08T08:56:27;46.95;;;25.13;;
33830;SDS011;20137;48.834;8.732;2024-03-08T08:58:53;46.53;;;23.75;;
33830;SDS011;20137;48.834;8.732;2024-03-08T09:01:20;45.85;;;23.75;;
33830;SDS011;20137;48.834;8.732;2024-03-08T09:03:45;52.30;;;27.10;;
33830;SDS011;20137;48.834;8.732;2024-03-08T09:06:15;49.03;;;24.38;;
33830;SDS011;20137;48.834;8.732;2024-03-08T09:08:42;52.13;;;26.42;;
33830;SDS011;20137;48.834;8.732;2024-03-08T09:11:09;50.85;;;24.90;;
33830;SDS011;20137;48.834;8.732;2024-03-08T09:13:35;49.25;;;25.25;;
33830;SDS011;20137;48.834;8.732;2024-03-08T09:16:01;48.33;;;24.60;;
33830;SDS011;20137;48.834;8.732;2024-03-08T09:18:28;54.88;;;26.77;;
33830;SDS011;20137;48.834;8.732;2024-03-08T09:20:54;47.28;;;24.90;;
33830;SDS011;20137;48.834;8.732;2024-03-08T09:23:20;52.97;;;24.83;;
33830;SDS011;20137;48.834;8.732;2024-03-08T09:25:45;47.75;;;24.80;;
33830;SDS011;20137;48.834;8.732;2024-03-08T09:28:11;45.45;;;23.00;;
33830;SDS011;20137;48.834;8.732;2024-03-08T09:30:38;43.70;;;23.98;;
33830;SDS011;20137;48.834;8.732;2024-03-08T09:33:04;49.78;;;25.73;;
33830;SDS011;20137;48.834;8.732;2024-03-08T09:35:31;48.50;;;24.70;;
33830;SDS011;20137;48.834;8.732;2024-03-08T09:37:57;49.90;;;23.13;;
33830;SDS011;20137;48.834;8.732;2024-03-08T09:40:23;43.22;;;23.48;;
33830;SDS011;20137;48.834;8.732;2024-03-08T09:42:50;46.95;;;22.90;;
33830;SDS011;20137;48.834;8.732;2024-03-08T09:45:17;47.80;;;23.50;;
33830;SDS011;20137;48.834;8.732;2024-03-08T09:47:47;45.25;;;23.80;;
33830;SDS011;20137;48.834;8.732;2024-03-08T09:50:13;39.28;;;20.35;;
33830;SDS011;20137;48.834;8.732;2024-03-08T09:52:42;42.92;;;22.27;;
33830;SDS011;20137;48.834;8.732;2024-03-08T09:55:11;66.00;;;28.50;;
33830;SDS011;20137;48.834;8.732;2024-03-08T09:57:37;51.58;;;26.35;;
33830;SDS011;20137;48.834;8.732;2024-03-08T10:00:04;63.30;;;28.85;;
33830;SDS011;20137;48.834;8.732;2024-03-08T10:02:46;54.08;;;27.05;;
33830;SDS011;20137;48.834;8.732;2024-03-08T10:05:12;47.25;;;25.25;;
33830;SDS011;20137;48.834;8.732;2024-03-08T10:07:39;47.15;;;23.75;;
33830;SDS011;20137;48.834;8.732;2024-03-08T10:10:05;42.60;;;21.75;;
33830;SDS011;20137;48.834;8.732;2024-03-08T10:12:34;37.63;;;21.42;;
33830;SDS011;20137;48.834;8.732;2024-03-08T10:15:00;41.63;;;21.25;;
33830;SDS011;20137;48.834;8.732;2024-03-08T10:17:26;43.05;;;21.25;;
33830;SDS011;20137;48.834;8.732;2024-03-08T10:19:52;39.08;;;21.30;;
33830;SDS011;20137;48.834;8.732;2024-03-08T10:22:18;37.88;;;20.70;;
33830;SDS011;20137;48.834;8.732;2024-03-08T10:24:47;45.00;;;21.73;;
33830;SDS011;20137;48.834;8.732;2024-03-08T10:27:13;35.42;;;19.27;;
33830;SDS011;20137;48.834;8.732;2024-03-08T10:29:41;39.58;;;20.45;;
33830;SDS011;20137;48.834;8.732;2024-03-08T10:32:09;40.88;;;22.05;;
33830;SDS011;20137;48.834;8.732;2024-03-08T10:34:35;39.53;;;21.17;;
33830;SDS011;20137;48.834;8.732;2024-03-08T10:37:04;39.63;;;19.88;;
33830;SDS011;20137;48.834;8.732;2024-03-08T10:39:35;43.30;;;21.17;;
33830;SDS011;20137;48.834;8.732;2024-03-08T10:42:02;39.10;;;21.02;;
33830;SDS011;20137;48.834;8.732;2024-03-08T10:50:06;42.03;;;20.90;;
33830;SDS011;20137;48.834;8.732;2024-03-08T10:52:52;37.40;;;19.38;;
33830;SDS011;20137;48.834;8.732;2024-03-08T10:55:18;37.28;;;20.35;;
33830;SDS011;20137;48.834;8.732;2024-03-08T10:57:45;37.10;;;19.92;;
33830;SDS011;20137;48.834;8.732;2024-03-08T11:00:16;37.38;;;19.65;;
33830;SDS011;20137;48.834;8.732;2024-03-08T11:02:44;38.17;;;20.75;;
33830;SDS011;20137;48.834;8.732;2024-03-08T11:05:10;37.90;;;21.10;;
33830;SDS011;20137;48.834;8.732;2024-03-08T11:07:42;38.15;;;20.63;;
33830;SDS011;20137;48.834;8.732;2024-03-08T11:10:18;39.92;;;21.25;;
33830;SDS011;20137;48.834;8.732;2024-03-08T11:12:44;36.80;;;19.55;;
33830;SDS011;20137;48.834;8.732;2024-03-08T11:15:13;35.72;;;19.77;;
33830;SDS011;20137;48.834;8.732;2024-03-08T11:20:09;38.70;;;20.90;;
33830;SDS011;20137;48.834;8.732;2024-03-08T11:22:42;37.63;;;20.42;;
33830;SDS011;20137;48.834;8.732;2024-03-08T11:33:24;49.25;;;27.48;;
33830;SDS011;20137;48.834;8.732;2024-03-08T11:35:52;44.55;;;24.23;;
33830;SDS011;20137;48.834;8.732;2024-03-08T11:38:22;35.60;;;19.58;;
33830;SDS011;20137;48.834;8.732;2024-03-08T11:40:48;36.20;;;19.55;;
33830;SDS011;20137;48.834;8.732;2024-03-08T11:43:15;37.55;;;20.55;;
33830;SDS011;20137;48.834;8.732;2024-03-08T11:45:41;34.90;;;18.95;;
33830;SDS011;20137;48.834;8.732;2024-03-08T11:48:07;35.97;;;18.13;;
33830;SDS011;20137;48.834;8.732;2024-03-08T11:50:33;34.13;;;18.95;;
33830;SDS011;20137;48.834;8.732;2024-03-08T11:53:03;36.67;;;20.10;;
33830;SDS011;20137;48.834;8.732;2024-03-08T11:55:33;40.85;;;22.83;;
33830;SDS011;20137;48.834;8.732;2024-03-08T11:58:04;38.33;;;20.52;;
33830;SDS011;20137;48.834;8.732;2024-03-08T12:00:30;39.00;;;21.50;;
33830;SDS011;20137;48.834;8.732;2024-03-08T12:03:06;32.65;;;18.73;;
33830;SDS011;20137;48.834;8.732;2024-03-08T12:05:34;43.47;;;23.58;;
33830;SDS011;20137;48.834;8.732;2024-03-08T12:08:04;35.25;;;19.88;;
33830;SDS011;20137;48.834;8.732;2024-03-08T12:10:37;33.47;;;18.35;;
33830;SDS011;20137;48.834;8.732;2024-03-08T12:13:03;42.20;;;22.27;;
33830;SDS011;20137;48.834;8.732;2024-03-08T12:15:37;41.83;;;23.38;;
33830;SDS011;20137;48.834;8.732;2024-03-08T12:18:04;45.08;;;24.20;;
33830;SDS011;20137;48.834;8.732;2024-03-08T12:20:32;31.40;;;17.17;;
33830;SDS011;20137;48.834;8.732;2024-03-08T12:22:58;40.05;;;20.92;;
33830;SDS011;20137;48.834;8.732;2024-03-08T12:25:29;37.03;;;19.85;;
33830;SDS011;20137;48.834;8.732;2024-03-08T12:27:57;36.72;;;20.17;;
33830;SDS011;20137;48.834;8.732;2024-03-08T12:30:31;34.97;;;19.65;;
33830;SDS011;20137;48.834;8.732;2024-03-08T12:32:59;38.90;;;20.65;;
33830;SDS011;20137;48.834;8.732;2024-03-08T12:35:29;47.60;;;22.52;;
33830;SDS011;20137;48.834;8.732;2024-03-08T12:37:58;52.08;;;25.60;;
33830;SDS011;20137;48.834;8.732;2024-03-08T12:40:26;31.45;;;17.65;;
33830;SDS011;20137;48.834;8.732;2024-03-08T12:42:53;40.25;;;22.10;;
33830;SDS011;20137;48.834;8.732;2024-03-08T12:45:25;46.00;;;24.42;;
33830;SDS011;20137;48.834;8.732;2024-03-08T12:47:52;47.10;;;24.63;;
33830;SDS011;20137;48.834;8.732;2024-03-08T12:50:19;29.30;;;17.02;;
33830;SDS011;20137;48.834;8.732;2024-03-08T12:52:47;38.90;;;20.83;;
33830;SDS011;20137;48.834;8.732;2024-03-08T12:55:13;30.92;;;17.95;;
33830;SDS011;20137;48.834;8.732;2024-03-08T12:57:41;37.33;;;20.33;;
33830;SDS011;20137;48.834;8.732;2024-03-08T13:00:07;34.80;;;19.10;;
33830;SDS011;20137;48.834;8.732;2024-03-08T13:02:38;28.52;;;16.40;;
33830;SDS011;20137;48.834;8.732;2024-03-08T13:05:04;33.58;;;17.15;;
33830;SDS011;20137;48.834;8.732;2024-03-08T13:07:30;32.13;;;18.55;;
33830;SDS011;20137;48.834;8.732;2024-03-08T13:09:56;31.77;;;19.10;;
33830;SDS011;20137;48.834;8.732;2024-03-08T13:12:24;55.95;;;27.80;;
33830;SDS011;20137;48.834;8.732;2024-03-08T13:14:50;40.13;;;20.23;;
33830;SDS011;20137;48.834;8.732;2024-03-08T13:17:16;37.80;;;21.27;;
33830;SDS011;20137;48.834;8.732;2024-03-08T13:19:46;39.17;;;21.38;;
33830;SDS011;20137;48.834;8.732;2024-03-08T13:22:12;33.15;;;19.10;;
33830;SDS011;20137;48.834;8.732;2024-03-08T13:24:41;57.25;;;29.65;;
33830;SDS011;20137;48.834;8.732;2024-03-08T13:27:10;34.55;;;19.67;;
33830;SDS011;20137;48.834;8.732;2024-03-08T13:29:53;36.72;;;20.73;;
33830;SDS011;20137;48.834;8.732;2024-03-08T13:32:19;44.50;;;24.20;;
33830;SDS011;20137;48.834;8.732;2024-03-08T13:34:45;50.53;;;24.92;;
33830;SDS011;20137;48.834;8.732;2024-03-08T13:37:12;37.80;;;20.52;;
33830;SDS011;20137;48.834;8.732;2024-03-08T13:39:40;38.42;;;20.77;;
33830;SDS011;20137;48.834;8.732;2024-03-08T13:42:11;34.55;;;18.33;;
33830;SDS011;20137;48.834;8.732;2024-03-08T13:44:47;51.47;;;25.63;;
33830;SDS011;20137;48.834;8.732;2024-03-08T13:47:15;29.00;;;17.25;;
33830;SDS011;20137;48.834;8.732;2024-03-08T13:49:45;54.30;;;28.55;;
33830;SDS011;20137;48.834;8.732;2024-03-08T13:52:11;47.78;;;25.30;;
33830;SDS011;20137;48.834;8.732;2024-03-08T13:54:40;31.20;;;18.00;;
33830;SDS011;20137;48.834;8.732;2024-03-08T13:57:06;38.47;;;20.42;;
33830;SDS011;20137;48.834;8.732;2024-03-08T13:59:32;57.92;;;30.75;;
33830;SDS011;20137;48.834;8.732;2024-03-08T14:02:00;62.38;;;31.05;;
33830;SDS011;20137;48.834;8.732;2024-03-08T14:04:27;40.38;;;20.73;;
33830;SDS011;20137;48.834;8.732;2024-03-08T14:06:53;43.63;;;24.05;;
33830;SDS011;20137;48.834;8.732;2024-03-08T14:09:24;36.83;;;19.95;;
33830;SDS011;20137;48.834;8.732;2024-03-08T14:11:57;53.72;;;25.02;;
33830;SDS011;20137;48.834;8.732;2024-03-08T14:14:23;52.75;;;25.23;;
33830;SDS011;20137;48.834;8.732;2024-03-08T14:16:49;38.70;;;20.08;;
33830;SDS011;20137;48.834;8.732;2024-03-08T14:19:20;44.35;;;24.10;;
33830;SDS011;20137;48.834;8.732;2024-03-08T14:21:46;38.28;;;21.27;;
33830;SDS011;20137;48.834;8.732;2024-03-08T14:24:13;34.08;;;18.73;;
33830;SDS011;20137;48.834;8.732;2024-03-08T14:26:40;34.20;;;19.38;;
33830;SDS011;20137;48.834;8.732;2024-03-08T14:29:07;57.53;;;28.73;;
33830;SDS011;20137;48.834;8.732;2024-03-08T14:31:35;41.97;;;22.05;;
33830;SDS011;20137;48.834;8.732;2024-03-08T14:34:05;69.90;;;33.45;;
33830;SDS011;20137;48.834;8.732;2024-03-08T14:36:32;36.50;;;19.85;;
33830;SDS011;20137;48.834;8.732;2024-03-08T14:38:58;43.40;;;21.05;;